Time;durP1;ratioP1;P1;durP2;ratioP2;P2;SDS_P1;SDS_P2;PMS_P1;PMS_P2;Temp;Humidity;BMP_temperature;BMP_pressure;BME280_temperature;BME280_humidity;BME280_pressure;Samples;Min_cycle;Max_cycle;Signal;HPM_P1;HPM_P2
2022/10/03 00:01:47;;;;;;;1.03;0.80;;;;;;;10.24;100.00;96988.78;5039772;28;20311;-69
2022/10/03 00:04:29;;;;;;;5.03;1.20;;;;;;;10.15;100.00;96999.44;5035238;28;20224;-70
2022/10/03 00:07:08;;;;;;;1.17;0.87;;;;;;;10.13;100.00;96993.50;5039385;28;20228;-70
2022/10/03 00:09:56;;;;;;;3.20;1.00;;;;;;;9.99;100.00;96997.53;5039277;28;20201;-70
2022/10/03 00:12:46;;;;;;;2.43;1.60;;;;;;;9.98;100.00;96998.53;5038489;28;20206;-70
2022/10/03 00:15:20;;;;;;;4.07;1.40;;;;;;;9.85;100.00;96998.06;5038929;28;20205;-70
2022/10/03 00:17:58;;;;;;;3.00;1.20;;;;;;;9.92;100.00;97004.38;5039101;28;20645;-70
2022/10/03 00:20:44;;;;;;;8.47;1.70;;;;;;;9.84;100.00;97006.94;5038931;28;20213;-70
2022/10/03 00:23:21;;;;;;;4.87;1.40;;;;;;;9.72;100.00;97002.91;5038978;28;20209;-69
2022/10/03 00:25:55;;;;;;;1.10;1.00;;;;;;;9.69;100.00;96997.94;5038110;28;20208;-70
2022/10/03 00:28:42;;;;;;;1.90;1.00;;;;;;;9.61;100.00;97009.38;5038933;28;20193;-70
2022/10/03 00:31:13;;;;;;;2.93;1.20;;;;;;;9.54;100.00;96998.66;5038926;28;20228;-70
2022/10/03 00:33:53;;;;;;;2.13;1.23;;;;;;;9.55;100.00;96999.50;5038228;28;20210;-70
2022/10/03 00:36:28;;;;;;;1.80;1.00;;;;;;;9.66;100.00;97001.88;5039094;28;20573;-70
2022/10/03 00:39:27;;;;;;;2.83;1.30;;;;;;;9.57;100.00;97014.16;5038487;28;20212;-70
2022/10/03 00:42:34;;;;;;;1.17;0.80;;;;;;;9.55;100.00;97013.47;5038467;28;20205;-69
2022/10/03 00:45:41;;;;;;;1.27;0.80;;;;;;;9.50;100.00;97017.53;5038136;28;20580;-70
2022/10/03 00:48:44;;;;;;;7.63;1.20;;;;;;;9.49;100.00;97021.13;5038575;28;20204;-69
2022/10/03 00:51:25;;;;;;;1.67;1.00;;;;;;;9.50;100.00;97023.63;5038424;28;20219;-70
2022/10/03 00:54:08;;;;;;;1.87;1.13;;;;;;;9.53;100.00;97033.81;5038068;28;20216;-70
2022/10/03 00:56:53;;;;;;;24.30;1.80;;;;;;;9.46;100.00;97032.78;5038301;28;20201;-70
2022/10/03 00:59:35;;;;;;;3.97;1.47;;;;;;;9.58;100.00;97039.47;5037875;28;20197;-70
2022/10/03 01:02:25;;;;;;;4.70;1.27;;;;;;;9.53;100.00;97041.72;5038505;28;20198;-70
2022/10/03 01:05:00;;;;;;;1.30;0.87;;;;;;;9.38;100.00;97047.66;5038129;28;20209;-70
2022/10/03 01:08:01;;;;;;;3.13;1.40;;;;;;;9.42;100.00;97041.13;5037822;28;21057;-69
2022/10/03 01:10:35;;;;;;;1.83;1.30;;;;;;;9.38;100.00;97039.75;5034710;28;20220;-69
2022/10/03 01:13:25;;;;;;;1.27;0.87;;;;;;;9.29;100.00;97040.66;5036840;28;21021;-69
2022/10/03 01:15:59;;;;;;;4.20;0.80;;;;;;;9.11;100.00;97047.72;5037922;28;20213;-70
2022/10/03 01:18:39;;;;;;;2.33;1.40;;;;;;;9.14;100.00;97044.81;5038381;28;20197;-70
2022/10/03 01:21:18;;;;;;;3.60;1.50;;;;;;;9.15;100.00;97049.06;5037664;28;20217;-70
2022/10/03 01:24:18;;;;;;;1.33;0.90;;;;;;;9.20;100.00;97054.72;5036672;28;20735;-70
2022/10/03 01:26:58;;;;;;;1.37;0.90;;;;;;;9.05;100.00;97052.75;5035104;28;20212;-69
2022/10/03 01:32:40;;;;;;;2.07;1.57;;;;;;;9.15;100.00;97062.22;5037736;28;20290;-70
2022/10/03 01:35:19;;;;;;;2.63;1.60;;;;;;;9.11;100.00;97060.84;5037849;28;20205;-70
2022/10/03 01:37:52;;;;;;;6.30;1.50;;;;;;;9.08;100.00;97053.28;5037060;28;20313;-70
2022/10/03 01:40:25;;;;;;;2.23;1.50;;;;;;;9.08;100.00;97059.34;5037090;28;20221;-69
2022/10/03 01:43:03;;;;;;;1.73;1.17;;;;;;;9.05;100.00;97061.47;5037393;28;20213;-70
2022/10/03 01:45:42;;;;;;;21.83;2.07;;;;;;;8.86;100.00;97064.22;5037264;28;20193;-69
2022/10/03 01:48:15;;;;;;;7.30;2.30;;;;;;;8.86;100.00;97056.31;5037278;28;20213;-69
2022/10/03 01:50:51;;;;;;;3.37;1.60;;;;;;;8.88;100.00;97046.47;5037404;28;20231;-70
2022/10/03 01:53:29;;;;;;;2.17;1.30;;;;;;;8.82;100.00;97051.50;5036226;28;20196;-70
2022/10/03 01:56:03;;;;;;;2.10;1.50;;;;;;;8.82;100.00;97048.88;5037437;28;20209;-69
2022/10/03 01:58:41;;;;;;;2.47;1.43;;;;;;;8.66;100.00;97052.13;5037234;28;20196;-69
2022/10/03 02:01:15;;;;;;;2.80;1.50;;;;;;;8.73;100.00;97045.34;5037180;28;20786;-70
2022/10/03 02:03:49;;;;;;;3.13;1.47;;;;;;;8.80;100.00;97058.72;5034277;28;20225;-69
2022/10/03 02:06:24;;;;;;;7.97;1.77;;;;;;;8.60;100.00;97057.97;5036660;28;20661;-69
2022/10/03 02:08:58;;;;;;;8.17;1.50;;;;;;;8.59;100.00;97056.31;5036607;28;20216;-70
2022/10/03 02:11:33;;;;;;;3.67;1.50;;;;;;;8.66;100.00;97049.50;5037262;28;20255;-69
2022/10/03 02:14:21;;;;;;;3.60;1.00;;;;;;;8.60;100.00;97055.34;5036014;28;20642;-69
2022/10/03 02:16:57;;;;;;;1.77;1.10;;;;;;;8.48;100.00;97059.13;5036918;28;20201;-69
2022/10/03 02:19:28;;;;;;;2.40;1.17;;;;;;;8.39;100.00;97061.78;5037074;28;20238;-69
2022/10/03 02:21:57;;;;;;;2.67;1.40;;;;;;;8.44;100.00;97070.06;5036958;28;20208;-69
2022/10/03 02:24:41;;;;;;;1.93;1.27;;;;;;;8.52;100.00;97071.00;5036708;28;20236;-69
2022/10/03 02:27:28;;;;;;;2.37;1.27;;;;;;;8.52;100.00;97068.38;5036982;28;20304;-70
2022/10/03 02:30:09;;;;;;;1.73;1.30;;;;;;;8.51;100.00;97076.41;5036687;28;20239;-70
2022/10/03 02:33:17;;;;;;;1.60;1.00;;;;;;;8.60;100.00;97083.41;5036532;28;20292;-69
2022/10/03 02:35:59;;;;;;;2.57;1.10;;;;;;;8.49;100.00;97079.16;5036297;28;20689;-70
2022/10/03 02:38:41;;;;;;;1.60;1.10;;;;;;;8.45;100.00;97078.78;5036509;28;20201;-70
2022/10/03 02:41:24;;;;;;;2.27;1.40;;;;;;;8.40;100.00;97089.72;5037401;28;20225;-69
2022/10/03 02:44:12;;;;;;;5.23;1.53;;;;;;;8.37;100.00;97083.91;5035875;28;20869;-70
2022/10/03 02:47:25;;;;;;;1.97;1.23;;;;;;;8.41;100.00;97082.66;5036917;28;20201;-70
2022/10/03 02:50:18;;;;;;;3.27;1.50;;;;;;;8.25;100.00;97085.03;5036606;28;20640;-69
2022/10/03 02:53:17;;;;;;;4.57;1.17;;;;;;;8.23;100.00;97085.19;5035982;28;20236;-70
2022/10/03 02:56:10;;;;;;;2.07;1.20;;;;;;;8.31;100.00;97087.09;5006406;28;20197;-70
2022/10/03 02:59:11;;;;;;;7.00;1.60;;;;;;;8.27;100.00;97097.06;5037018;28;20205;-70
2022/10/03 03:02:12;;;;;;;2.40;1.43;;;;;;;8.12;100.00;97090.59;5036200;28;20260;-70
2022/10/03 03:05:06;;;;;;;1.87;1.13;;;;;;;8.13;100.00;97096.66;5035932;28;20712;-70
2022/10/03 03:07:49;;;;;;;3.83;1.60;;;;;;;8.09;100.00;97100.53;5033576;28;21058;-70
2022/10/03 03:10:59;;;;;;;5.70;2.03;;;;;;;8.14;100.00;97107.03;5039482;28;20221;-69
2022/10/03 03:13:58;;;;;;;4.60;2.23;;;;;;;8.15;100.00;97102.63;5039960;28;20220;-69
2022/10/03 03:16:42;;;;;;;10.73;2.10;;;;;;;8.11;100.00;97103.84;5040461;28;20620;-69
2022/10/03 03:19:23;;;;;;;4.00;1.83;;;;;;;8.14;100.00;97112.28;5040498;28;20317;-69
2022/10/03 03:21:56;;;;;;;3.50;2.00;;;;;;;8.17;100.00;97104.16;5040496;28;20228;-69
2022/10/03 03:24:40;;;;;;;7.60;1.97;;;;;;;8.10;100.00;97116.13;5039428;28;20221;-70
2022/10/03 03:27:27;;;;;;;3.70;2.10;;;;;;;8.18;100.00;97112.84;5040458;28;20208;-69
2022/10/03 03:30:02;;;;;;;3.13;1.83;;;;;;;8.11;100.00;97123.06;5039858;28;20244;-70
2022/10/03 03:32:43;;;;;;;3.87;2.10;;;;;;;8.12;100.00;97110.75;5038915;28;20266;-70
2022/10/03 03:35:21;;;;;;;3.60;2.00;;;;;;;8.23;100.00;97110.63;5040540;28;21060;-70
2022/10/03 03:37:55;;;;;;;3.20;2.10;;;;;;;8.22;100.00;97108.97;5039987;28;20224;-70
2022/10/03 03:40:37;;;;;;;3.63;2.00;;;;;;;8.26;100.00;97100.69;5039982;28;20221;-70
2022/10/03 03:43:39;;;;;;;5.43;2.70;;;;;;;8.18;100.00;97107.59;5039348;28;20201;-70
2022/10/03 03:46:19;;;;;;;3.83;2.20;;;;;;;8.09;100.00;97100.53;4965056;28;20203;-70
2022/10/03 03:49:03;;;;;;;5.40;2.83;;;;;;;8.04;100.00;97097.50;5039269;28;20208;-70
2022/10/03 03:51:39;;;;;;;3.17;1.57;;;;;;;7.99;100.00;97099.72;5039659;28;20255;-69
2022/10/03 03:54:33;;;;;;;2.27;1.60;;;;;;;8.03;100.00;97095.84;5039145;28;20201;-70
2022/10/03 03:57:27;;;;;;;1.90;1.20;;;;;;;8.10;100.00;97104.81;5039378;28;20197;-70
2022/10/03 04:00:11;;;;;;;4.43;2.30;;;;;;;8.03;100.00;97093.22;5039598;28;20248;-70
2022/10/03 04:02:52;;;;;;;3.13;1.70;;;;;;;8.03;100.00;97099.31;5038595;28;20197;-69
2022/10/03 04:05:30;;;;;;;1.77;1.20;;;;;;;7.99;100.00;97102.34;5039820;28;20223;-70
2022/10/03 04:08:13;;;;;;;2.13;1.60;;;;;;;7.94;100.00;97094.91;5040337;28;20205;-70
2022/10/03 04:10:53;;;;;;;4.93;2.03;;;;;;;7.90;100.00;97097.94;5038682;28;20223;-70
2022/10/03 04:13:40;;;;;;;3.40;1.83;;;;;;;7.96;100.00;97087.69;5038114;28;20197;-70
2022/10/03 04:19:24;;;;;;;3.07;1.57;;;;;;;7.89;100.00;97091.03;5039011;28;20258;-70
2022/10/03 04:22:10;;;;;;;2.70;1.50;;;;;;;7.93;100.00;97093.25;5039125;28;20731;-70
2022/10/03 04:25:14;;;;;;;3.27;1.40;;;;;;;7.96;100.00;97094.75;5038502;28;20217;-70
2022/10/03 04:28:09;;;;;;;2.77;0.90;;;;;;;7.83;100.00;97091.59;5014779;28;20197;-70
2022/10/03 04:30:46;;;;;;;3.40;1.70;;;;;;;7.62;100.00;97095.34;5039084;28;20227;-69
2022/10/03 04:33:30;;;;;;;2.73;1.47;;;;;;;7.58;100.00;97100.03;5038415;28;20205;-70
2022/10/03 04:36:29;;;;;;;3.50;1.37;;;;;;;7.66;100.00;97099.34;5038696;28;20236;-70
2022/10/03 04:39:06;;;;;;;1.80;1.27;;;;;;;7.56;100.00;97101.97;5036483;28;20205;-69
2022/10/03 04:41:42;;;;;;;6.47;1.97;;;;;;;7.60;100.00;97110.38;5038624;28;20236;-70
2022/10/03 04:44:18;;;;;;;3.90;2.00;;;;;;;7.63;100.00;97110.94;5038127;28;20208;-69
2022/10/03 04:46:52;;;;;;;8.37;2.03;;;;;;;7.69;100.00;97110.38;5038946;28;20271;-70
2022/10/03 04:49:30;;;;;;;6.00;2.13;;;;;;;7.59;100.00;97112.16;5038574;28;20651;-70
2022/10/03 04:52:02;;;;;;;6.10;2.67;;;;;;;7.65;100.00;97108.16;5038602;28;20209;-70
2022/10/03 04:54:46;;;;;;;3.73;1.57;;;;;;;7.54;100.00;97111.75;5037362;28;20717;-69
2022/10/03 04:57:23;;;;;;;2.67;1.37;;;;;;;7.49;100.00;97113.13;5038772;28;20724;-70
2022/10/03 04:59:56;;;;;;;2.10;1.37;;;;;;;7.49;100.00;97111.34;5038377;28;20227;-70
2022/10/03 05:02:40;;;;;;;5.53;1.40;;;;;;;7.40;100.00;97124.44;5037650;28;20205;-70
2022/10/03 05:05:27;;;;;;;4.00;1.87;;;;;;;7.43;100.00;97124.16;5038510;28;20226;-70
2022/10/03 05:08:03;;;;;;;9.93;2.47;;;;;;;7.40;100.00;97113.97;5037674;28;20205;-70
2022/10/03 05:10:45;;;;;;;4.07;1.73;;;;;;;7.48;100.00;97116.72;5038176;28;20766;-69
2022/10/03 05:13:18;;;;;;;10.60;1.80;;;;;;;7.40;100.00;97119.19;5036875;28;20293;-69
2022/10/03 05:15:55;;;;;;;9.53;2.10;;;;;;;7.40;100.00;97120.03;5038158;28;20210;-69
2022/10/03 05:18:34;;;;;;;10.10;1.80;;;;;;;7.28;100.00;97123.75;5038148;28;20201;-70
2022/10/03 05:21:09;;;;;;;18.13;2.53;;;;;;;7.46;100.00;97122.09;5037753;28;20223;-69
2022/10/03 05:23:50;;;;;;;20.80;2.53;;;;;;;7.26;100.00;97129.25;5036921;28;21027;-70
2022/10/03 05:26:26;;;;;;;12.43;2.57;;;;;;;7.32;100.00;97125.13;5038088;28;20212;-70
2022/10/03 05:28:59;;;;;;;4.97;2.40;;;;;;;7.42;100.00;97141.69;5037919;28;20207;-71
2022/10/03 05:31:35;;;;;;;4.87;2.20;;;;;;;7.57;100.00;97139.50;5036982;28;20664;-71
2022/10/03 05:34:11;;;;;;;7.60;2.70;;;;;;;7.61;100.00;97140.88;5037474;28;20201;-70
2022/10/03 05:37:01;;;;;;;10.43;3.13;;;;;;;7.64;100.00;97148.50;5037871;28;20197;-70
2022/10/03 05:39:37;;;;;;;9.07;3.20;;;;;;;7.57;100.00;97150.81;5037061;28;20296;-69
2022/10/03 05:42:25;;;;;;;5.83;2.60;;;;;;;7.55;100.00;97155.38;5036962;28;20203;-69
2022/10/03 05:45:02;;;;;;;8.10;3.00;;;;;;;7.44;100.00;97154.69;5036985;28;20216;-69
2022/10/03 05:47:45;;;;;;;13.67;3.17;;;;;;;7.39;100.00;97155.06;5037227;28;20212;-69
2022/10/03 05:50:49;;;;;;;14.83;3.20;;;;;;;7.42;100.00;97149.56;5037593;28;20221;-69
2022/10/03 05:53:35;;;;;;;8.97;2.80;;;;;;;7.43;100.00;97155.63;5037757;28;20197;-70
2022/10/03 05:56:10;;;;;;;10.87;3.77;;;;;;;7.36;100.00;97150.09;5045119;28;20339;-70
2022/10/03 05:58:54;;;;;;;19.43;5.27;;;;;;;7.46;100.00;97156.19;5045416;28;20196;-69
2022/10/03 06:01:56;;;;;;;10.13;4.33;;;;;;;7.53;100.00;97161.72;5044317;28;20304;-69
2022/10/03 06:04:52;;;;;;;11.57;3.73;;;;;;;7.63;100.00;97166.00;5043796;28;20224;-69
2022/10/03 06:07:25;;;;;;;13.43;4.20;;;;;;;7.71;100.00;97175.81;5044415;28;20205;-70
2022/10/03 06:10:25;;;;;;;15.53;6.63;;;;;;;7.85;100.00;97172.78;5044284;28;20228;-69
2022/10/03 06:13:07;;;;;;;12.33;5.83;;;;;;;7.85;100.00;97173.63;5019232;28;20217;-69
2022/10/03 06:15:53;;;;;;;17.77;5.43;;;;;;;7.88;100.00;97173.34;5038039;28;20189;-70
2022/10/03 06:18:44;;;;;;;19.73;5.17;;;;;;;7.94;100.00;97175.41;5036614;28;20735;-70
2022/10/03 06:21:41;;;;;;;16.33;5.23;;;;;;;7.98;100.00;97177.63;5036541;28;20221;-70
2022/10/03 06:24:34;;;;;;;9.50;4.50;;;;;;;8.08;100.00;97173.22;5005679;28;20624;-70
2022/10/03 06:27:29;;;;;;;20.43;5.37;;;;;;;8.16;100.00;97177.78;5043410;28;20205;-69
2022/10/03 06:30:11;;;;;;;15.30;3.50;;;;;;;8.13;100.00;97183.28;5014001;28;20229;-69
2022/10/03 06:33:12;;;;;;;10.23;4.50;;;;;;;8.21;100.00;97186.91;5044342;28;20251;-69
2022/10/03 06:36:05;;;;;;;13.37;4.57;;;;;;;8.26;100.00;97189.09;5036429;28;20199;-70
2022/10/03 06:39:07;;;;;;;9.93;4.57;;;;;;;8.37;100.00;97191.59;5045141;28;20323;-70
2022/10/03 06:42:05;;;;;;;11.67;5.77;;;;;;;8.48;100.00;97194.03;5036299;28;20228;-69
2022/10/03 06:44:49;;;;;;;13.13;5.93;;;;;;;8.56;100.00;97208.94;5038195;28;20256;-70
2022/10/03 06:47:35;;;;;;;11.90;6.20;;;;;;;8.79;100.00;97214.72;5040838;28;20209;-70
2022/10/03 06:50:40;;;;;;;22.87;8.87;;;;;;;8.97;100.00;97207.75;5040236;28;20312;-69
2022/10/03 06:53:25;;;;;;;19.27;7.60;;;;;;;9.03;100.00;97200.13;5008833;28;20201;-70
2022/10/03 06:56:18;;;;;;;13.73;6.30;;;;;;;9.10;100.00;97209.09;5043717;28;20205;-70
2022/10/03 06:59:13;;;;;;;12.67;5.53;;;;;;;9.19;100.00;97208.22;5047813;28;20213;-70
2022/10/03 07:02:05;;;;;;;15.50;6.80;;;;;;;9.35;100.00;97209.22;5047162;28;20225;-70
2022/10/03 07:05:35;;;;;;;14.63;7.40;;;;;;;9.58;100.00;97212.31;5045912;28;20212;-70
2022/10/03 07:08:31;;;;;;;18.57;7.13;;;;;;;9.64;100.00;97217.00;5020399;28;20220;-69
2022/10/03 07:11:15;;;;;;;14.80;6.33;;;;;;;9.74;100.00;97222.03;5039457;28;20221;-71
2022/10/03 07:14:09;;;;;;;15.50;6.37;;;;;;;9.94;100.00;97218.31;5039246;28;20768;-71
2022/10/03 07:17:11;;;;;;;15.07;6.20;;;;;;;9.91;100.00;97223.84;5041028;28;20200;-71
2022/10/03 07:20:29;;;;;;;14.80;6.30;;;;;;;10.06;100.00;97222.41;5039756;28;20989;-71
2022/10/03 07:23:42;;;;;;;14.87;6.30;;;;;;;10.10;100.00;97228.19;5026370;28;20704;-70
2022/10/03 07:26:52;;;;;;;12.07;5.43;;;;;;;10.13;100.00;97230.53;5040343;28;20220;-70
2022/10/03 07:29:27;;;;;;;13.23;6.10;;;;;;;10.21;100.00;97234.06;5039441;28;20205;-70
2022/10/03 07:32:15;;;;;;;12.50;5.13;;;;;;;10.22;100.00;97234.88;5038893;28;20219;-70
2022/10/03 07:35:08;;;;;;;12.63;5.00;;;;;;;10.32;100.00;97240.91;5039494;28;20212;-69
2022/10/03 07:41:14;;;;;;;10.60;4.37;;;;;;;10.18;100.00;97241.44;5046690;28;20227;-70
2022/10/03 07:43:59;;;;;;;9.57;4.83;;;;;;;10.28;100.00;97250.09;5045073;28;20205;-70
2022/10/03 07:46:51;;;;;;;9.50;4.53;;;;;;;10.17;100.00;97250.31;5043549;28;20225;-69
2022/10/03 07:49:45;;;;;;;12.60;5.40;;;;;;;10.29;100.00;97257.03;5044652;28;20231;-70
2022/10/03 07:52:38;;;;;;;9.63;5.20;;;;;;;10.49;100.00;97262.81;5044669;28;20570;-70
2022/10/03 07:55:52;;;;;;;11.27;5.63;;;;;;;10.68;100.00;97262.66;5044933;28;20205;-70
2022/10/03 07:58:37;;;;;;;16.93;6.30;;;;;;;10.72;100.00;97263.19;4968439;28;20208;-69
2022/10/03 08:01:26;;;;;;;16.33;7.03;;;;;;;10.87;100.00;97265.09;5041097;28;20232;-71
2022/10/03 08:04:37;;;;;;;14.40;6.90;;;;;;;11.18;100.00;97267.09;5038433;28;20205;-70
2022/10/03 08:07:24;;;;;;;16.40;6.73;;;;;;;11.20;100.00;97269.59;5038258;28;20204;-70
2022/10/03 08:10:03;;;;;;;15.27;6.77;;;;;;;11.34;100.00;97261.94;5039220;28;20316;-70
2022/10/03 08:12:51;;;;;;;14.30;6.50;;;;;;;11.56;100.00;97261.41;5038738;28;20208;-70
2022/10/03 08:15:35;;;;;;;11.73;5.63;;;;;;;11.67;100.00;97263.75;5038263;28;20209;-70
2022/10/03 08:18:27;;;;;;;13.30;6.00;;;;;;;11.81;100.00;97258.72;5038860;28;20201;-70
2022/10/03 08:20:55;;;;;;;14.83;5.93;;;;;;;11.83;100.00;97251.44;5037775;28;20229;-71
2022/10/03 08:24:10;;;;;;;13.30;6.27;;;;;;;12.07;100.00;97256.81;5037576;28;20205;-70
2022/10/03 08:26:53;;;;;;;14.83;6.47;;;;;;;12.12;100.00;97253.66;5038925;28;20601;-70
2022/10/03 08:29:53;;;;;;;14.80;7.10;;;;;;;12.34;100.00;97253.88;5036519;28;20201;-70
2022/10/03 08:32:52;;;;;;;17.27;6.97;;;;;;;12.47;100.00;97251.59;5037689;28;20198;-71
2022/10/03 08:35:34;;;;;;;14.07;6.70;;;;;;;12.66;100.00;97252.09;5038354;28;20198;-71
2022/10/03 08:38:24;;;;;;;15.30;7.15;;;;;;;12.88;100.00;97254.09;5038660;28;20221;-71
2022/10/03 08:41:33;;;;;;;21.80;8.00;;;;;;;13.25;100.00;97246.44;5038098;28;20217;-71
2022/10/03 08:44:38;;;;;;;15.02;7.55;;;;;;;13.23;100.00;97249.25;5004249;28;20208;-71
2022/10/03 08:47:33;;;;;;;13.82;6.88;;;;;;;13.23;100.00;97243.16;5037862;28;20566;-71
2022/10/03 08:50:19;;;;;;;14.88;7.10;;;;;;;13.37;100.00;97245.09;5038282;28;20600;-71
2022/10/03 08:53:14;;;;;;;16.65;6.80;;;;;;;13.76;100.00;97244.09;5035206;28;20669;-71
2022/10/03 08:55:51;;;;;;;15.77;7.47;;;;;;;13.95;100.00;97241.88;5038323;28;20201;-71
2022/10/03 08:58:51;;;;;;;15.15;7.32;;;;;;;14.08;100.00;97247.47;5038442;28;20212;-71
2022/10/03 09:01:45;;;;;;;14.73;6.72;;;;;;;14.03;100.00;97247.94;5032833;28;20308;-71
2022/10/03 09:04:50;;;;;;;13.13;6.32;;;;;;;13.97;100.00;97244.34;5036821;28;20661;-71
2022/10/03 09:07:33;;;;;;;16.85;6.40;;;;;;;13.89;100.00;97242.56;5037430;28;20205;-71
2022/10/03 09:10:36;;;;;;;13.77;6.38;;;;;;;13.84;100.00;97244.91;5038109;28;20221;-71
2022/10/03 09:13:20;;;;;;;13.98;6.80;;;;;;;13.94;100.00;97234.09;5034990;28;20205;-72
2022/10/03 09:16:23;;;;;;;17.13;6.80;;;;;;;13.82;100.00;97231.00;5035926;28;20201;-70
2022/10/03 09:19:05;;;;;;;13.65;6.63;;;;;;;14.06;100.00;97236.19;5034595;28;20938;-72
2022/10/03 09:22:02;;;;;;;15.25;7.57;;;;;;;13.94;100.00;97236.72;5037160;28;21272;-71
2022/10/03 09:25:01;;;;;;;20.75;7.07;;;;;;;14.02;100.00;97240.19;5032800;28;20201;-71
2022/10/03 09:27:54;;;;;;;15.75;5.80;;;;;;;14.05;100.00;97237.16;5029909;28;20196;-71
2022/10/03 09:30:25;;;;;;;13.18;6.45;;;;;;;14.09;100.00;97241.16;5006798;28;20221;-71
2022/10/03 09:33:34;;;;;;;15.00;6.03;;;;;;;14.38;100.00;97238.66;5035406;28;20618;-72
2022/10/03 09:36:31;;;;;;;12.95;5.72;;;;;;;14.37;100.00;97237.84;5019605;28;20193;-71
2022/10/03 09:39:17;;;;;;;16.15;6.30;;;;;;;14.40;99.62;97241.97;5036619;28;20213;-71
2022/10/03 09:42:13;;;;;;;13.82;5.57;;;;;;;14.61;99.07;97242.16;5035572;28;20216;-71
2022/10/03 09:45:09;;;;;;;9.90;4.85;;;;;;;14.55;98.38;97240.19;5035746;28;20201;-71
2022/10/03 09:48:13;;;;;;;12.73;5.32;;;;;;;14.53;100.00;97231.59;5035364;28;20208;-71
2022/10/03 09:51:10;;;;;;;13.20;5.63;;;;;;;14.58;100.00;97238.03;5035140;28;20221;-71
2022/10/03 09:54:21;;;;;;;11.15;5.40;;;;;;;14.75;100.00;97228.91;5034830;28;20658;-71
2022/10/03 09:57:09;;;;;;;12.30;5.35;;;;;;;14.99;99.02;97229.53;5035466;28;20204;-71
2022/10/03 09:59:52;;;;;;;11.57;5.10;;;;;;;15.05;94.42;97234.13;5035595;28;20197;-72
2022/10/03 10:02:47;;;;;;;12.27;5.05;;;;;;;14.99;92.77;97234.03;5035090;28;20208;-71
2022/10/03 10:05:39;;;;;;;24.63;5.28;;;;;;;15.23;88.89;97237.31;5035868;28;20214;-71
2022/10/03 10:08:56;;;;;;;11.20;4.65;;;;;;;15.33;86.78;97235.22;5035186;28;20213;-71
2022/10/03 10:11:37;;;;;;;11.57;4.60;;;;;;;15.32;88.66;97233.56;5035125;28;20402;-70
2022/10/03 10:14:47;;;;;;;9.15;4.22;;;;;;;15.48;87.39;97225.44;5034120;28;20689;-71
2022/10/03 10:17:51;;;;;;;7.32;4.28;;;;;;;15.79;84.81;97218.06;4954741;28;20195;-72
2022/10/03 10:20:32;;;;;;;7.85;4.18;;;;;;;15.89;86.95;97216.78;4954671;28;20223;-71
2022/10/03 10:23:24;;;;;;;8.60;3.45;;;;;;;16.14;82.61;97226.91;5017867;28;20228;-72
2022/10/03 10:26:39;;;;;;;11.95;3.50;;;;;;;15.87;82.06;97222.28;5024728;28;20229;-71
2022/10/03 10:29:20;;;;;;;5.13;2.92;;;;;;;15.40;79.91;97212.22;5035790;28;20208;-72
2022/10/03 10:32:30;;;;;;;8.23;3.42;;;;;;;15.14;83.95;97217.13;5035257;28;20225;-71
2022/10/03 10:35:43;;;;;;;3.95;2.75;;;;;;;14.87;83.06;97212.41;5035174;28;20234;-71
2022/10/03 10:38:25;;;;;;;6.70;2.95;;;;;;;15.00;82.31;97222.41;5020152;28;21092;-70
2022/10/03 10:41:37;;;;;;;6.88;2.92;;;;;;;15.34;83.17;97212.97;5035551;28;20230;-70
2022/10/03 10:44:37;;;;;;;5.03;2.83;;;;;;;15.40;81.72;97212.22;5035371;28;20197;-70
2022/10/03 10:47:36;;;;;;;7.80;3.30;;;;;;;15.68;79.83;97216.72;5035234;28;20225;-70
2022/10/03 10:50:55;;;;;;;7.95;3.33;;;;;;;15.73;80.28;97213.50;5034581;28;20488;-70
2022/10/03 10:54:05;;;;;;;11.40;3.90;;;;;;;15.91;78.20;97212.91;5035310;28;20639;-71
2022/10/03 10:57:08;;;;;;;9.00;3.55;;;;;;;15.99;75.71;97204.81;5035023;28;20194;-70
2022/10/03 11:00:03;;;;;;;8.15;2.92;;;;;;;16.26;72.24;97208.66;5034832;28;20683;-71
2022/10/03 11:03:24;;;;;;;5.45;2.78;;;;;;;16.46;77.41;97202.50;5034935;28;20296;-71
2022/10/03 11:06:44;;;;;;;5.45;3.08;;;;;;;16.34;77.15;97209.34;4973065;28;20750;-72
2022/10/03 11:09:52;;;;;;;9.45;2.40;;;;;;;16.12;73.15;97215.59;5035388;28;20197;-71
2022/10/03 11:12:57;;;;;;;6.63;2.10;;;;;;;15.52;71.81;97230.19;5034664;28;20201;-71
2022/10/03 11:16:01;;;;;;;6.68;2.35;;;;;;;15.22;77.43;97230.34;5021906;28;20223;-72
2022/10/03 11:19:07;;;;;;;5.75;2.05;;;;;;;15.24;75.59;97227.53;5034147;28;20197;-70
2022/10/03 11:22:10;;;;;;;5.18;2.42;;;;;;;15.19;81.49;97224.56;5015859;28;20219;-71
2022/10/03 11:25:19;;;;;;;7.93;2.63;;;;;;;15.18;82.98;97223.72;5033478;28;20205;-71
2022/10/03 11:28:27;;;;;;;7.90;2.90;;;;;;;15.48;80.88;97214.81;5033936;28;20269;-72
2022/10/03 11:31:38;;;;;;;6.05;2.75;;;;;;;15.52;78.33;97216.91;5036905;28;20228;-71
2022/10/03 11:34:41;;;;;;;4.88;2.60;;;;;;;15.81;75.76;97216.03;5037615;28;20197;-71
2022/10/03 11:37:18;;;;;;;5.85;2.47;;;;;;;15.91;74.45;97202.28;5037693;28;20205;-72
2022/10/03 11:39:53;;;;;;;7.15;3.05;;;;;;;16.17;76.39;97205.25;5037302;28;20192;-71
2022/10/03 11:42:32;;;;;;;8.27;2.45;;;;;;;16.37;76.09;97200.16;5036939;28;20653;-71
2022/10/03 11:45:01;;;;;;;5.63;2.28;;;;;;;16.41;76.08;97209.41;5035267;28;20201;-72
2022/10/03 11:47:49;;;;;;;5.00;2.35;;;;;;;16.32;77.01;97208.72;5038041;28;20221;-72
2022/10/03 11:50:39;;;;;;;6.82;2.70;;;;;;;16.14;77.09;97199.47;5037420;28;20221;-71
2022/10/03 11:53:36;;;;;;;5.30;2.42;;;;;;;15.83;76.30;97214.03;5037957;28;20198;-72
2022/10/03 11:56:20;;;;;;;6.20;2.50;;;;;;;15.73;77.26;97198.34;5038093;28;20304;-72
2022/10/03 11:59:11;;;;;;;4.60;2.35;;;;;;;15.75;76.99;97200.84;5038232;28;21239;-72
2022/10/03 12:01:52;;;;;;;8.68;2.25;;;;;;;15.47;79.29;97192.72;5037670;28;20311;-72
2022/10/03 12:04:28;;;;;;;6.25;2.75;;;;;;;15.53;81.50;97185.81;5037498;28;20193;-72
2022/10/03 12:10:01;;;;;;;6.65;2.33;;;;;;;15.28;80.20;97195.09;5035482;28;20708;-72
2022/10/03 12:12:38;;;;;;;6.82;2.50;;;;;;;15.16;82.42;97188.56;5037207;28;20579;-72
2022/10/03 12:15:20;;;;;;;6.05;2.30;;;;;;;15.31;82.95;97192.06;5037178;28;20631;-72
2022/10/03 12:17:55;;;;;;;5.63;2.78;;;;;;;15.32;83.25;97177.78;5033983;28;20213;-71
2022/10/03 12:20:25;;;;;;;5.32;2.58;;;;;;;15.46;84.25;97182.28;5037622;28;20216;-72
2022/10/03 12:23:00;;;;;;;6.65;2.50;;;;;;;15.45;82.41;97178.81;5036305;28;20213;-72
2022/10/03 12:25:29;;;;;;;6.90;2.35;;;;;;;15.50;81.28;97183.53;5036868;28;20471;-71
2022/10/03 12:28:13;;;;;;;6.43;2.90;;;;;;;15.56;84.26;97180.16;5037258;28;20225;-71
2022/10/03 12:30:47;;;;;;;9.77;2.40;;;;;;;15.37;81.41;97191.34;5036686;28;20315;-72
2022/10/03 12:33:43;;;;;;;5.03;2.13;;;;;;;15.45;82.89;97181.47;5036276;28;20659;-72
2022/10/03 12:36:14;;;;;;;6.95;2.03;;;;;;;15.54;78.98;97182.16;5036297;28;20658;-72
2022/10/03 12:38:54;;;;;;;8.45;2.60;;;;;;;15.48;80.55;97177.59;5036419;28;20584;-71
2022/10/03 12:41:32;;;;;;;8.57;2.50;;;;;;;15.52;81.73;97179.69;5035998;28;20352;-71
2022/10/03 12:44:20;;;;;;;4.35;2.00;;;;;;;15.51;81.07;97187.84;5035862;28;20425;-71
2022/10/03 12:47:01;;;;;;;5.63;2.03;;;;;;;15.57;86.78;97182.63;5036108;28;20244;-71
2022/10/03 12:49:40;;;;;;;9.95;2.30;;;;;;;15.43;79.88;97177.34;5036738;28;20571;-71
2022/10/03 12:52:16;;;;;;;7.45;2.10;;;;;;;15.47;84.62;97176.75;5036451;28;20204;-71
2022/10/03 12:54:51;;;;;;;6.32;1.98;;;;;;;15.61;82.47;97177.78;5036168;28;20312;-71
2022/10/03 12:57:46;;;;;;;11.40;2.20;;;;;;;15.72;79.37;97185.25;5036481;28;20212;-72
2022/10/03 13:00:20;;;;;;;4.32;2.20;;;;;;;15.84;82.51;97185.41;5036400;28;20224;-72
2022/10/03 13:03:05;;;;;;;8.93;2.22;;;;;;;16.04;80.11;97186.47;5035755;28;20219;-71
2022/10/03 13:05:55;;;;;;;5.75;1.83;;;;;;;16.04;80.05;97175.03;5036503;28;20863;-72
2022/10/03 13:08:43;;;;;;;6.00;2.00;;;;;;;15.96;78.68;97188.41;5036147;28;20217;-71
2022/10/03 13:11:24;;;;;;;8.40;2.05;;;;;;;15.90;79.63;97184.69;5036401;28;20220;-72
2022/10/03 13:14:05;;;;;;;8.43;2.33;;;;;;;15.81;77.62;97169.03;5035042;28;20292;-72
2022/10/03 13:16:35;;;;;;;6.70;1.90;;;;;;;15.79;79.20;97172.91;5036001;28;20196;-71
2022/10/03 13:19:12;;;;;;;6.50;2.15;;;;;;;15.87;79.75;97170.94;5036140;28;20384;-71